sensor_id;sensor_type;location;lat;lon;timestamp;P1;durP1;ratioP1;P2;durP2;ratioP2
77191;SDS011;66172;48.526;8.078;2023-09-19T00:00:57;5.10;;;0.70;;
77191;SDS011;66172;48.526;8.078;2023-09-19T00:03:23;4.23;;;0.90;;
77191;SDS011;66172;48.526;8.078;2023-09-19T00:05:51;3.42;;;0.65;;
77191;SDS011;66172;48.526;8.078;2023-09-19T00:08:16;3.88;;;0.75;;
77191;SDS011;66172;48.526;8.078;2023-09-19T00:10:43;3.70;;;0.65;;
77191;SDS011;66172;48.526;8.078;2023-09-19T00:13:09;4.57;;;0.90;;
77191;SDS011;66172;48.526;8.078;2023-09-19T00:15:39;5.25;;;0.70;;
77191;SDS011;66172;48.526;8.078;2023-09-19T00:18:07;4.43;;;0.60;;
77191;SDS011;66172;48.526;8.078;2023-09-19T00:20:37;4.32;;;0.80;;
77191;SDS011;66172;48.526;8.078;2023-09-19T00:23:04;4.00;;;0.65;;
77191;SDS011;66172;48.526;8.078;2023-09-19T00:25:35;3.40;;;0.60;;
77191;SDS011;66172;48.526;8.078;2023-09-19T00:28:03;3.97;;;0.80;;
77191;SDS011;66172;48.526;8.078;2023-09-19T00:30:31;4.32;;;0.70;;
77191;SDS011;66172;48.526;8.078;2023-09-19T00:32:57;3.10;;;0.50;;
77191;SDS011;66172;48.526;8.078;2023-09-19T00:35:23;2.93;;;0.60;;
77191;SDS011;66172;48.526;8.078;2023-09-19T00:37:52;4.47;;;0.60;;
77191;SDS011;66172;48.526;8.078;2023-09-19T00:40:19;3.83;;;0.73;;
77191;SDS011;66172;48.526;8.078;2023-09-19T00:42:47;3.80;;;0.85;;
77191;SDS011;66172;48.526;8.078;2023-09-19T00:45:16;5.28;;;0.80;;
77191;SDS011;66172;48.526;8.078;2023-09-19T00:47:49;3.00;;;0.50;;
77191;SDS011;66172;48.526;8.078;2023-09-19T00:50:17;4.05;;;0.60;;
77191;SDS011;66172;48.526;8.078;2023-09-19T00:52:48;4.60;;;0.70;;
77191;SDS011;66172;48.526;8.078;2023-09-19T00:55:15;3.45;;;0.50;;
77191;SDS011;66172;48.526;8.078;2023-09-19T00:57:42;5.18;;;0.50;;
77191;SDS011;66172;48.526;8.078;2023-09-19T01:00:09;4.33;;;0.60;;
77191;SDS011;66172;48.526;8.078;2023-09-19T01:02:41;3.33;;;0.57;;
77191;SDS011;66172;48.526;8.078;2023-09-19T01:05:10;3.92;;;0.57;;
77191;SDS011;66172;48.526;8.078;2023-09-19T01:07:38;3.28;;;0.60;;
77191;SDS011;66172;48.526;8.078;2023-09-19T01:10:06;4.28;;;0.70;;
77191;SDS011;66172;48.526;8.078;2023-09-19T01:12:43;5.20;;;0.63;;
77191;SDS011;66172;48.526;8.078;2023-09-19T01:18:25;4.65;;;0.80;;
77191;SDS011;66172;48.526;8.078;2023-09-19T01:26:24;4.67;;;0.80;;
77191;SDS011;66172;48.526;8.078;2023-09-19T01:31:57;4.72;;;0.80;;
77191;SDS011;66172;48.526;8.078;2023-09-19T01:34:27;3.42;;;0.60;;
77191;SDS011;66172;48.526;8.078;2023-09-19T01:36:53;3.58;;;0.52;;
77191;SDS011;66172;48.526;8.078;2023-09-19T01:39:19;3.17;;;0.60;;
77191;SDS011;66172;48.526;8.078;2023-09-19T01:41:56;4.07;;;0.57;;
77191;SDS011;66172;48.526;8.078;2023-09-19T01:44:39;5.93;;;1.35;;
77191;SDS011;66172;48.526;8.078;2023-09-19T01:47:27;4.93;;;0.60;;
77191;SDS011;66172;48.526;8.078;2023-09-19T01:50:05;5.93;;;0.70;;
77191;SDS011;66172;48.526;8.078;2023-09-19T01:52:54;3.50;;;0.60;;
77191;SDS011;66172;48.526;8.078;2023-09-19T01:55:26;4.32;;;0.70;;
77191;SDS011;66172;48.526;8.078;2023-09-19T01:58:01;4.40;;;0.93;;
77191;SDS011;66172;48.526;8.078;2023-09-19T02:00:35;3.00;;;0.50;;
77191;SDS011;66172;48.526;8.078;2023-09-19T02:03:03;4.97;;;0.70;;
77191;SDS011;66172;48.526;8.078;2023-09-19T02:05:29;4.72;;;0.70;;
77191;SDS011;66172;48.526;8.078;2023-09-19T02:07:55;3.92;;;0.60;;
77191;SDS011;66172;48.526;8.078;2023-09-19T02:10:22;7.07;;;1.35;;
77191;SDS011;66172;48.526;8.078;2023-09-19T02:12:49;5.40;;;1.00;;
77191;SDS011;66172;48.526;8.078;2023-09-19T02:15:16;4.93;;;0.80;;
77191;SDS011;66172;48.526;8.078;2023-09-19T02:17:42;3.28;;;0.60;;
77191;SDS011;66172;48.526;8.078;2023-09-19T02:20:10;6.15;;;1.10;;
77191;SDS011;66172;48.526;8.078;2023-09-19T02:22:40;4.55;;;0.77;;
77191;SDS011;66172;48.526;8.078;2023-09-19T02:25:07;4.05;;;0.80;;
77191;SDS011;66172;48.526;8.078;2023-09-19T02:27:34;5.17;;;0.80;;
77191;SDS011;66172;48.526;8.078;2023-09-19T02:30:00;3.30;;;0.75;;
77191;SDS011;66172;48.526;8.078;2023-09-19T02:32:30;5.53;;;0.80;;
77191;SDS011;66172;48.526;8.078;2023-09-19T02:34:57;6.15;;;1.02;;
77191;SDS011;66172;48.526;8.078;2023-09-19T02:37:25;2.92;;;0.50;;
77191;SDS011;66172;48.526;8.078;2023-09-19T02:39:51;4.83;;;0.77;;
77191;SDS011;66172;48.526;8.078;2023-09-19T02:42:17;5.30;;;0.82;;
77191;SDS011;66172;48.526;8.078;2023-09-19T02:44:43;3.88;;;0.68;;
77191;SDS011;66172;48.526;8.078;2023-09-19T02:47:12;6.03;;;1.10;;
77191;SDS011;66172;48.526;8.078;2023-09-19T02:49:40;4.80;;;0.73;;
77191;SDS011;66172;48.526;8.078;2023-09-19T02:52:07;5.15;;;0.75;;
77191;SDS011;66172;48.526;8.078;2023-09-19T02:54:33;5.75;;;0.70;;
77191;SDS011;66172;48.526;8.078;2023-09-19T02:56:59;7.97;;;0.70;;
77191;SDS011;66172;48.526;8.078;2023-09-19T02:59:25;5.33;;;0.70;;
77191;SDS011;66172;48.526;8.078;2023-09-19T03:01:51;3.40;;;0.80;;
77191;SDS011;66172;48.526;8.078;2023-09-19T03:04:19;3.40;;;0.60;;
77191;SDS011;66172;48.526;8.078;2023-09-19T03:06:45;5.78;;;1.15;;
77191;SDS011;66172;48.526;8.078;2023-09-19T03:09:11;8.43;;;1.13;;
77191;SDS011;66172;48.526;8.078;2023-09-19T03:11:38;4.47;;;0.52;;
77191;SDS011;66172;48.526;8.078;2023-09-19T03:14:05;3.42;;;0.68;;
77191;SDS011;66172;48.526;8.078;2023-09-19T03:16:31;4.63;;;0.80;;
77191;SDS011;66172;48.526;8.078;2023-09-19T03:18:58;3.70;;;0.50;;
77191;SDS011;66172;48.526;8.078;2023-09-19T03:21:25;4.67;;;0.80;;
77191;SDS011;66172;48.526;8.078;2023-09-19T03:23:51;7.50;;;0.85;;
77191;SDS011;66172;48.526;8.078;2023-09-19T03:26:17;7.78;;;0.70;;
77191;SDS011;66172;48.526;8.078;2023-09-19T03:28:43;5.95;;;0.70;;
77191;SDS011;66172;48.526;8.078;2023-09-19T03:31:11;5.97;;;0.87;;
77191;SDS011;66172;48.526;8.078;2023-09-19T03:33:37;5.15;;;0.75;;
77191;SDS011;66172;48.526;8.078;2023-09-19T03:36:03;6.53;;;0.68;;
77191;SDS011;66172;48.526;8.078;2023-09-19T03:38:33;3.75;;;0.90;;
77191;SDS011;66172;48.526;8.078;2023-09-19T03:41:02;4.53;;;1.00;;
77191;SDS011;66172;48.526;8.078;2023-09-19T03:43:28;4.97;;;0.77;;
77191;SDS011;66172;48.526;8.078;2023-09-19T03:45:54;5.63;;;0.90;;
77191;SDS011;66172;48.526;8.078;2023-09-19T03:48:20;5.18;;;0.88;;
77191;SDS011;66172;48.526;8.078;2023-09-19T03:50:47;4.43;;;0.85;;
77191;SDS011;66172;48.526;8.078;2023-09-19T03:53:13;4.23;;;0.70;;
77191;SDS011;66172;48.526;8.078;2023-09-19T03:55:39;3.30;;;0.60;;
77191;SDS011;66172;48.526;8.078;2023-09-19T03:58:05;4.50;;;0.90;;
77191;SDS011;66172;48.526;8.078;2023-09-19T04:00:31;6.32;;;0.88;;
77191;SDS011;66172;48.526;8.078;2023-09-19T04:02:57;4.67;;;1.03;;
77191;SDS011;66172;48.526;8.078;2023-09-19T04:05:23;4.22;;;0.90;;
77191;SDS011;66172;48.526;8.078;2023-09-19T04:07:49;5.05;;;1.40;;
77191;SDS011;66172;48.526;8.078;2023-09-19T04:10:16;4.47;;;0.80;;
77191;SDS011;66172;48.526;8.078;2023-09-19T04:12:52;4.67;;;0.80;;
77191;SDS011;66172;48.526;8.078;2023-09-19T04:15:19;4.43;;;0.80;;
77191;SDS011;66172;48.526;8.078;2023-09-19T04:17:45;3.67;;;0.60;;
77191;SDS011;66172;48.526;8.078;2023-09-19T04:20:11;5.50;;;0.70;;
77191;SDS011;66172;48.526;8.078;2023-09-19T04:22:38;6.43;;;0.98;;
77191;SDS011;66172;48.526;8.078;2023-09-19T04:25:05;3.83;;;0.73;;
77191;SDS011;66172;48.526;8.078;2023-09-19T04:27:32;3.65;;;0.60;;
77191;SDS011;66172;48.526;8.078;2023-09-19T04:29:58;4.72;;;0.60;;
77191;SDS011;66172;48.526;8.078;2023-09-19T04:32:29;4.28;;;0.50;;
77191;SDS011;66172;48.526;8.078;2023-09-19T04:34:55;3.60;;;0.70;;
77191;SDS011;66172;48.526;8.078;2023-09-19T04:37:25;3.75;;;0.60;;
77191;SDS011;66172;48.526;8.078;2023-09-19T04:39:51;4.43;;;0.70;;
77191;SDS011;66172;48.526;8.078;2023-09-19T04:42:17;4.30;;;0.70;;
77191;SDS011;66172;48.526;8.078;2023-09-19T04:44:43;4.90;;;1.00;;
77191;SDS011;66172;48.526;8.078;2023-09-19T04:47:09;4.22;;;0.70;;
77191;SDS011;66172;48.526;8.078;2023-09-19T04:49:37;3.92;;;0.60;;
77191;SDS011;66172;48.526;8.078;2023-09-19T04:52:03;4.47;;;0.60;;
77191;SDS011;66172;48.526;8.078;2023-09-19T04:54:29;5.67;;;0.80;;
77191;SDS011;66172;48.526;8.078;2023-09-19T04:56:55;3.97;;;0.60;;
77191;SDS011;66172;48.526;8.078;2023-09-19T04:59:21;5.35;;;0.80;;
77191;SDS011;66172;48.526;8.078;2023-09-19T05:01:47;3.75;;;0.50;;
77191;SDS011;66172;48.526;8.078;2023-09-19T05:04:13;3.90;;;0.63;;
77191;SDS011;66172;48.526;8.078;2023-09-19T05:06:39;4.22;;;0.70;;
77191;SDS011;66172;48.526;8.078;2023-09-19T05:09:04;4.47;;;0.70;;
77191;SDS011;66172;48.526;8.078;2023-09-19T05:11:31;8.13;;;1.50;;
77191;SDS011;66172;48.526;8.078;2023-09-19T05:13:57;4.95;;;0.60;;
77191;SDS011;66172;48.526;8.078;2023-09-19T05:16:22;4.28;;;0.77;;
77191;SDS011;66172;48.526;8.078;2023-09-19T05:18:48;2.95;;;0.60;;
77191;SDS011;66172;48.526;8.078;2023-09-19T05:21:15;4.87;;;0.80;;
77191;SDS011;66172;48.526;8.078;2023-09-19T05:23:41;5.22;;;0.70;;
77191;SDS011;66172;48.526;8.078;2023-09-19T05:26:07;4.45;;;0.65;;
77191;SDS011;66172;48.526;8.078;2023-09-19T05:28:33;4.05;;;0.60;;
77191;SDS011;66172;48.526;8.078;2023-09-19T05:31:00;5.28;;;0.68;;
77191;SDS011;66172;48.526;8.078;2023-09-19T05:33:27;4.13;;;0.60;;
77191;SDS011;66172;48.526;8.078;2023-09-19T05:35:53;4.05;;;0.68;;
77191;SDS011;66172;48.526;8.078;2023-09-19T05:38:19;5.93;;;0.60;;
77191;SDS011;66172;48.526;8.078;2023-09-19T05:40:45;4.53;;;0.75;;
77191;SDS011;66172;48.526;8.078;2023-09-19T05:43:11;4.77;;;0.80;;
77191;SDS011;66172;48.526;8.078;2023-09-19T05:45:40;5.20;;;0.73;;
77191;SDS011;66172;48.526;8.078;2023-09-19T05:48:07;4.85;;;0.60;;
77191;SDS011;66172;48.526;8.078;2023-09-19T05:50:41;5.05;;;0.60;;
77191;SDS011;66172;48.526;8.078;2023-09-19T05:53:07;5.15;;;0.68;;
77191;SDS011;66172;48.526;8.078;2023-09-19T05:55:33;4.70;;;0.70;;
77191;SDS011;66172;48.526;8.078;2023-09-19T05:57:59;4.13;;;0.52;;
77191;SDS011;66172;48.526;8.078;2023-09-19T06:00:25;4.70;;;0.50;;
77191;SDS011;66172;48.526;8.078;2023-09-19T06:02:53;3.17;;;0.80;;
77191;SDS011;66172;48.526;8.078;2023-09-19T06:05:20;4.47;;;0.63;;
77191;SDS011;66172;48.526;8.078;2023-09-19T06:07:46;3.97;;;0.50;;
77191;SDS011;66172;48.526;8.078;2023-09-19T06:10:13;3.20;;;0.70;;
77191;SDS011;66172;48.526;8.078;2023-09-19T06:12:40;4.43;;;0.57;;
77191;SDS011;66172;48.526;8.078;2023-09-19T06:15:09;3.80;;;0.70;;
77191;SDS011;66172;48.526;8.078;2023-09-19T06:17:38;3.93;;;0.70;;
77191;SDS011;66172;48.526;8.078;2023-09-19T06:20:05;3.03;;;0.50;;
77191;SDS011;66172;48.526;8.078;2023-09-19T06:22:38;3.83;;;0.50;;
77191;SDS011;66172;48.526;8.078;2023-09-19T06:25:07;4.63;;;0.60;;
77191;SDS011;66172;48.526;8.078;2023-09-19T06:27:33;6.13;;;0.80;;
77191;SDS011;66172;48.526;8.078;2023-09-19T06:30:02;4.43;;;0.70;;
77191;SDS011;66172;48.526;8.078;2023-09-19T06:32:28;4.40;;;0.80;;
77191;SDS011;66172;48.526;8.078;2023-09-19T06:34:54;4.75;;;0.57;;
77191;SDS011;66172;48.526;8.078;2023-09-19T06:37:20;5.22;;;0.63;;
77191;SDS011;66172;48.526;8.078;2023-09-19T06:39:47;3.10;;;0.60;;
77191;SDS011;66172;48.526;8.078;2023-09-19T06:42:16;4.03;;;0.70;;
77191;SDS011;66172;48.526;8.078;2023-09-19T06:44:43;5.18;;;0.80;;
77191;SDS011;66172;48.526;8.078;2023-09-19T06:47:09;4.20;;;0.60;;
77191;SDS011;66172;48.526;8.078;2023-09-19T06:49:36;4.78;;;0.65;;
77191;SDS011;66172;48.526;8.078;2023-09-19T06:52:02;5.83;;;0.80;;
77191;SDS011;66172;48.526;8.078;2023-09-19T06:54:29;4.20;;;0.65;;
77191;SDS011;66172;48.526;8.078;2023-09-19T06:56:59;5.35;;;1.25;;
77191;SDS011;66172;48.526;8.078;2023-09-19T06:59:25;4.55;;;0.90;;
77191;SDS011;66172;48.526;8.078;2023-09-19T07:01:51;3.83;;;0.70;;
77191;SDS011;66172;48.526;8.078;2023-09-19T07:04:17;4.50;;;0.70;;
77191;SDS011;66172;48.526;8.078;2023-09-19T07:06:50;5.28;;;0.70;;
77191;SDS011;66172;48.526;8.078;2023-09-19T07:09:16;6.10;;;0.63;;
77191;SDS011;66172;48.526;8.078;2023-09-19T07:11:45;5.00;;;1.10;;
77191;SDS011;66172;48.526;8.078;2023-09-19T07:14:11;4.60;;;0.80;;
77191;SDS011;66172;48.526;8.078;2023-09-19T07:16:37;4.55;;;0.60;;
77191;SDS011;66172;48.526;8.078;2023-09-19T07:19:05;3.50;;;0.70;;
77191;SDS011;66172;48.526;8.078;2023-09-19T07:21:31;3.90;;;0.70;;
77191;SDS011;66172;48.526;8.078;2023-09-19T07:24:01;4.57;;;0.67;;
77191;SDS011;66172;48.526;8.078;2023-09-19T07:26:28;4.38;;;0.82;;
77191;SDS011;66172;48.526;8.078;2023-09-19T07:28:54;5.07;;;0.63;;
77191;SDS011;66172;48.526;8.078;2023-09-19T07:31:21;4.47;;;0.75;;
77191;SDS011;66172;48.526;8.078;2023-09-19T07:33:48;4.78;;;0.80;;
77191;SDS011;66172;48.526;8.078;2023-09-19T07:36:14;3.90;;;0.80;;
77191;SDS011;66172;48.526;8.078;2023-09-19T07:38:41;4.13;;;0.90;;
77191;SDS011;66172;48.526;8.078;2023-09-19T07:41:08;6.00;;;1.10;;
77191;SDS011;66172;48.526;8.078;2023-09-19T07:43:36;4.43;;;1.15;;
77191;SDS011;66172;48.526;8.078;2023-09-19T07:46:04;3.95;;;1.10;;
77191;SDS011;66172;48.526;8.078;2023-09-19T07:48:33;5.63;;;1.40;;
77191;SDS011;66172;48.526;8.078;2023-09-19T07:51:05;4.22;;;1.10;;
77191;SDS011;66172;48.526;8.078;2023-09-19T07:53:33;4.32;;;1.10;;
77191;SDS011;66172;48.526;8.078;2023-09-19T07:56:03;5.00;;;1.27;;
77191;SDS011;66172;48.526;8.078;2023-09-19T07:58:30;4.10;;;1.13;;
77191;SDS011;66172;48.526;8.078;2023-09-19T08:01:02;5.50;;;1.30;;
77191;SDS011;66172;48.526;8.078;2023-09-19T08:03:34;3.50;;;1.20;;
77191;SDS011;66172;48.526;8.078;2023-09-19T08:06:03;4.32;;;1.20;;
77191;SDS011;66172;48.526;8.078;2023-09-19T08:08:29;4.30;;;1.20;;
77191;SDS011;66172;48.526;8.078;2023-09-19T08:10:56;4.30;;;1.13;;
77191;SDS011;66172;48.526;8.078;2023-09-19T08:13:23;4.72;;;1.25;;
77191;SDS011;66172;48.526;8.078;2023-09-19T08:15:49;4.68;;;1.58;;
77191;SDS011;66172;48.526;8.078;2023-09-19T08:18:16;6.28;;;1.50;;
77191;SDS011;66172;48.526;8.078;2023-09-19T08:20:43;4.10;;;1.30;;
77191;SDS011;66172;48.526;8.078;2023-09-19T08:23:11;4.20;;;1.50;;
77191;SDS011;66172;48.526;8.078;2023-09-19T08:25:37;4.22;;;1.20;;
77191;SDS011;66172;48.526;8.078;2023-09-19T08:28:05;3.97;;;1.10;;
77191;SDS011;66172;48.526;8.078;2023-09-19T08:30:34;4.72;;;1.30;;
77191;SDS011;66172;48.526;8.078;2023-09-19T08:33:00;5.45;;;1.30;;
77191;SDS011;66172;48.526;8.078;2023-09-19T08:35:27;4.03;;;1.20;;
77191;SDS011;66172;48.526;8.078;2023-09-19T08:37:53;4.63;;;1.40;;
77191;SDS011;66172;48.526;8.078;2023-09-19T08:40:21;4.32;;;1.20;;
77191;SDS011;66172;48.526;8.078;2023-09-19T08:42:50;5.38;;;1.30;;
77191;SDS011;66172;48.526;8.078;2023-09-19T08:45:17;6.28;;;1.20;;
77191;SDS011;66172;48.526;8.078;2023-09-19T08:47:45;4.53;;;1.33;;
77191;SDS011;66172;48.526;8.078;2023-09-19T08:50:32;5.03;;;1.23;;
77191;SDS011;66172;48.526;8.078;2023-09-19T08:53:01;3.83;;;1.13;;
77191;SDS011;66172;48.526;8.078;2023-09-19T08:55:36;4.63;;;1.45;;
77191;SDS011;66172;48.526;8.078;2023-09-19T08:58:06;5.00;;;1.35;;
77191;SDS011;66172;48.526;8.078;2023-09-19T09:00:36;5.57;;;1.20;;
77191;SDS011;66172;48.526;8.078;2023-09-19T09:03:08;5.43;;;1.52;;
77191;SDS011;66172;48.526;8.078;2023-09-19T09:05:36;4.53;;;1.20;;
77191;SDS011;66172;48.526;8.078;2023-09-19T09:08:02;4.30;;;1.27;;
77191;SDS011;66172;48.526;8.078;2023-09-19T09:10:31;3.80;;;1.00;;
77191;SDS011;66172;48.526;8.078;2023-09-19T09:12:57;4.90;;;1.10;;
77191;SDS011;66172;48.526;8.078;2023-09-19T09:15:24;4.35;;;1.20;;
77191;SDS011;66172;48.526;8.078;2023-09-19T09:17:50;4.90;;;1.00;;
77191;SDS011;66172;48.526;8.078;2023-09-19T09:20:19;5.90;;;1.20;;
77191;SDS011;66172;48.526;8.078;2023-09-19T09:22:51;4.63;;;1.23;;
77191;SDS011;66172;48.526;8.078;2023-09-19T09:25:19;3.77;;;1.03;;
77191;SDS011;66172;48.526;8.078;2023-09-19T09:27:58;4.50;;;1.10;;
77191;SDS011;66172;48.526;8.078;2023-09-19T09:30:33;4.38;;;1.20;;
77191;SDS011;66172;48.526;8.078;2023-09-19T09:33:11;5.45;;;1.10;;
77191;SDS011;66172;48.526;8.078;2023-09-19T09:35:48;4.22;;;1.10;;
77191;SDS011;66172;48.526;8.078;2023-09-19T09:38:18;4.43;;;0.93;;
77191;SDS011;66172;48.526;8.078;2023-09-19T09:40:48;4.53;;;1.00;;
77191;SDS011;66172;48.526;8.078;2023-09-19T09:43:29;5.22;;;1.10;;
77191;SDS011;66172;48.526;8.078;2023-09-19T09:46:10;5.88;;;1.30;;
77191;SDS011;66172;48.526;8.078;2023-09-19T09:48:56;5.55;;;1.30;;
77191;SDS011;66172;48.526;8.078;2023-09-19T09:52:05;4.67;;;1.20;;
77191;SDS011;66172;48.526;8.078;2023-09-19T09:55:00;5.30;;;1.30;;
77191;SDS011;66172;48.526;8.078;2023-09-19T09:57:30;4.90;;;1.10;;
77191;SDS011;66172;48.526;8.078;2023-09-19T09:59:57;4.25;;;1.15;;
77191;SDS011;66172;48.526;8.078;2023-09-19T10:02:40;4.70;;;1.40;;
77191;SDS011;66172;48.526;8.078;2023-09-19T10:07:48;6.28;;;1.08;;
77191;SDS011;66172;48.526;8.078;2023-09-19T10:10:34;4.35;;;1.10;;
77191;SDS011;66172;48.526;8.078;2023-09-19T10:13:11;4.63;;;1.10;;
77191;SDS011;66172;48.526;8.078;2023-09-19T10:15:39;4.43;;;1.30;;
77191;SDS011;66172;48.526;8.078;2023-09-19T10:18:10;5.10;;;1.00;;
77191;SDS011;66172;48.526;8.078;2023-09-19T10:20:36;3.70;;;1.10;;
77191;SDS011;66172;48.526;8.078;2023-09-19T10:23:11;4.70;;;1.27;;
77191;SDS011;66172;48.526;8.078;2023-09-19T10:25:43;5.40;;;1.67;;
77191;SDS011;66172;48.526;8.078;2023-09-19T10:28:13;3.78;;;1.30;;
77191;SDS011;66172;48.526;8.078;2023-09-19T10:30:44;4.87;;;1.60;;
77191;SDS011;66172;48.526;8.078;2023-09-19T10:33:13;4.18;;;1.38;;
77191;SDS011;66172;48.526;8.078;2023-09-19T10:35:44;4.90;;;1.50;;
77191;SDS011;66172;48.526;8.078;2023-09-19T10:38:12;6.82;;;1.50;;
77191;SDS011;66172;48.526;8.078;2023-09-19T10:40:40;3.63;;;1.42;;
77191;SDS011;66172;48.526;8.078;2023-09-19T10:43:11;6.70;;;1.63;;
77191;SDS011;66172;48.526;8.078;2023-09-19T10:45:38;4.28;;;1.77;;
77191;SDS011;66172;48.526;8.078;2023-09-19T10:48:05;5.30;;;1.70;;
77191;SDS011;66172;48.526;8.078;2023-09-19T10:50:35;4.32;;;1.75;;
77191;SDS011;66172;48.526;8.078;2023-09-19T10:53:20;4.97;;;1.85;;
77191;SDS011;66172;48.526;8.078;2023-09-19T10:55:48;5.93;;;1.50;;
77191;SDS011;66172;48.526;8.078;2023-09-19T10:58:24;4.13;;;1.55;;
77191;SDS011;66172;48.526;8.078;2023-09-19T11:00:57;4.43;;;1.60;;
77191;SDS011;66172;48.526;8.078;2023-09-19T11:03:38;5.85;;;1.50;;
77191;SDS011;66172;48.526;8.078;2023-09-19T11:06:18;4.05;;;1.52;;
77191;SDS011;66172;48.526;8.078;2023-09-19T11:20:19;6.18;;;1.63;;
77191;SDS011;66172;48.526;8.078;2023-09-19T11:22:55;4.60;;;1.80;;
77191;SDS011;66172;48.526;8.078;2023-09-19T11:28:27;5.50;;;1.42;;
77191;SDS011;66172;48.526;8.078;2023-09-19T11:30:44;3.65;;;1.50;;
77191;SDS011;66172;48.526;8.078;2023-09-19T11:33:21;4.65;;;1.65;;
77191;SDS011;66172;48.526;8.078;2023-09-19T11:36:11;4.30;;;1.50;;
77191;SDS011;66172;48.526;8.078;2023-09-19T11:43:48;6.45;;;1.60;;
77191;SDS011;66172;48.526;8.078;2023-09-19T11:46:16;5.43;;;1.50;;
77191;SDS011;66172;48.526;8.078;2023-09-19T11:48:47;4.30;;;1.60;;
77191;SDS011;66172;48.526;8.078;2023-09-19T11:51:16;3.75;;;1.20;;
77191;SDS011;66172;48.526;8.078;2023-09-19T11:53:52;5.10;;;1.40;;
77191;SDS011;66172;48.526;8.078;2023-09-19T11:56:20;4.40;;;1.20;;
77191;SDS011;66172;48.526;8.078;2023-09-19T11:58:53;3.70;;;1.27;;
77191;SDS011;66172;48.526;8.078;2023-09-19T12:01:30;3.80;;;1.20;;
77191;SDS011;66172;48.526;8.078;2023-09-19T12:03:58;4.40;;;1.40;;
77191;SDS011;66172;48.526;8.078;2023-09-19T12:06:25;8.10;;;1.60;;
77191;SDS011;66172;48.526;8.078;2023-09-19T12:08:52;4.88;;;1.40;;
77191;SDS011;66172;48.526;8.078;2023-09-19T12:11:19;4.00;;;1.50;;
77191;SDS011;66172;48.526;8.078;2023-09-19T12:13:48;4.57;;;1.37;;
77191;SDS011;66172;48.526;8.078;2023-09-19T12:16:16;4.50;;;1.48;;
77191;SDS011;66172;48.526;8.078;2023-09-19T12:18:43;3.83;;;1.38;;
77191;SDS011;66172;48.526;8.078;2023-09-19T12:21:21;5.95;;;1.90;;
77191;SDS011;66172;48.526;8.078;2023-09-19T12:23:59;3.80;;;1.27;;
77191;SDS011;66172;48.526;8.078;2023-09-19T12:26:30;5.33;;;1.63;;
77191;SDS011;66172;48.526;8.078;2023-09-19T12:29:10;4.50;;;1.48;;
77191;SDS011;66172;48.526;8.078;2023-09-19T12:31:57;3.53;;;1.13;;
77191;SDS011;66172;48.526;8.078;2023-09-19T12:34:25;3.75;;;1.20;;
77191;SDS011;66172;48.526;8.078;2023-09-19T12:37:08;3.60;;;1.45;;
77191;SDS011;66172;48.526;8.078;2023-09-19T12:39:38;3.57;;;1.20;;
77191;SDS011;66172;48.526;8.078;2023-09-19T12:42:07;4.25;;;1.48;;
77191;SDS011;66172;48.526;8.078;2023-09-19T12:44:36;3.20;;;1.00;;
77191;SDS011;66172;48.526;8.078;2023-09-19T12:47:18;3.38;;;1.30;;
77191;SDS011;66172;48.526;8.078;2023-09-19T12:52:37;4.67;;;1.30;;
77191;SDS011;66172;48.526;8.078;2023-09-19T12:55:05;3.55;;;1.10;;
77191;SDS011;66172;48.526;8.078;2023-09-19T12:57:36;3.45;;;1.02;;
77191;SDS011;66172;48.526;8.078;2023-09-19T13:00:02;5.63;;;1.30;;
77191;SDS011;66172;48.526;8.078;2023-09-19T13:02:31;4.90;;;1.20;;
77191;SDS011;66172;48.526;8.078;2023-09-19T13:04:58;4.00;;;1.10;;
77191;SDS011;66172;48.526;8.078;2023-09-19T13:07:42;4.25;;;1.20;;
77191;SDS011;66172;48.526;8.078;2023-09-19T13:10:10;4.88;;;1.08;;
77191;SDS011;66172;48.526;8.078;2023-09-19T13:12:37;5.25;;;1.30;;
77191;SDS011;66172;48.526;8.078;2023-09-19T13:15:10;3.30;;;0.90;;
77191;SDS011;66172;48.526;8.078;2023-09-19T13:17:42;3.67;;;1.00;;
77191;SDS011;66172;48.526;8.078;2023-09-19T13:20:20;4.95;;;1.10;;
77191;SDS011;66172;48.526;8.078;2023-09-19T13:22:53;3.55;;;1.10;;
77191;SDS011;66172;48.526;8.078;2023-09-19T13:25:23;4.18;;;1.30;;
77191;SDS011;66172;48.526;8.078;2023-09-19T13:27:50;4.73;;;0.97;;
77191;SDS011;66172;48.526;8.078;2023-09-19T13:30:20;4.82;;;1.27;;
77191;SDS011;66172;48.526;8.078;2023-09-19T13:32:47;3.50;;;1.00;;
77191;SDS011;66172;48.526;8.078;2023-09-19T13:35:13;3.80;;;1.00;;
77191;SDS011;66172;48.526;8.078;2023-09-19T13:37:40;4.07;;;1.10;;
77191;SDS011;66172;48.526;8.078;2023-09-19T13:40:07;3.50;;;1.10;;
77191;SDS011;66172;48.526;8.078;2023-09-19T13:42:37;3.53;;;1.00;;
77191;SDS011;66172;48.526;8.078;2023-09-19T13:45:03;3.88;;;1.00;;
77191;SDS011;66172;48.526;8.078;2023-09-19T13:47:33;3.97;;;1.00;;
77191;SDS011;66172;48.526;8.078;2023-09-19T13:49:59;4.57;;;1.20;;
77191;SDS011;66172;48.526;8.078;2023-09-19T13:52:28;3.43;;;1.00;;
77191;SDS011;66172;48.526;8.078;2023-09-19T13:54:56;3.92;;;0.90;;
77191;SDS011;66172;48.526;8.078;2023-09-19T13:57:22;3.92;;;1.23;;
77191;SDS011;66172;48.526;8.078;2023-09-19T13:59:49;4.63;;;1.30;;
77191;SDS011;66172;48.526;8.078;2023-09-19T14:02:15;3.45;;;1.00;;
77191;SDS011;66172;48.526;8.078;2023-09-19T14:04:44;3.27;;;0.90;;
77191;SDS011;66172;48.526;8.078;2023-09-19T14:07:10;3.22;;;1.02;;
77191;SDS011;66172;48.526;8.078;2023-09-19T14:09:41;3.40;;;1.00;;
77191;SDS011;66172;48.526;8.078;2023-09-19T14:12:07;4.47;;;0.90;;
77191;SDS011;66172;48.526;8.078;2023-09-19T14:14:32;3.35;;;1.10;;
77191;SDS011;66172;48.526;8.078;2023-09-19T14:16:58;5.10;;;1.00;;
77191;SDS011;66172;48.526;8.078;2023-09-19T14:19:26;4.45;;;1.10;;
77191;SDS011;66172;48.526;8.078;2023-09-19T14:21:53;3.72;;;1.13;;
77191;SDS011;66172;48.526;8.078;2023-09-19T14:24:21;3.00;;;0.73;;
77191;SDS011;66172;48.526;8.078;2023-09-19T14:26:47;3.55;;;0.88;;
77191;SDS011;66172;48.526;8.078;2023-09-19T14:29:15;4.17;;;0.83;;
77191;SDS011;66172;48.526;8.078;2023-09-19T14:31:41;3.05;;;0.80;;
77191;SDS011;66172;48.526;8.078;2023-09-19T14:34:08;3.38;;;0.88;;
77191;SDS011;66172;48.526;8.078;2023-09-19T14:36:37;4.63;;;0.85;;
77191;SDS011;66172;48.526;8.078;2023-09-19T14:39:06;3.47;;;0.85;;
77191;SDS011;66172;48.526;8.078;2023-09-19T14:41:33;3.67;;;0.80;;
77191;SDS011;66172;48.526;8.078;2023-09-19T14:44:01;4.95;;;1.00;;
77191;SDS011;66172;48.526;8.078;2023-09-19T14:46:28;3.97;;;1.10;;
77191;SDS011;66172;48.526;8.078;2023-09-19T14:48:55;3.55;;;0.98;;
77191;SDS011;66172;48.526;8.078;2023-09-19T14:51:25;3.50;;;0.90;;
77191;SDS011;66172;48.526;8.078;2023-09-19T14:53:51;3.85;;;1.02;;
77191;SDS011;66172;48.526;8.078;2023-09-19T14:56:18;3.78;;;1.00;;
77191;SDS011;66172;48.526;8.078;2023-09-19T14:58:45;3.10;;;0.75;;
77191;SDS011;66172;48.526;8.078;2023-09-19T15:01:13;3.17;;;0.80;;
77191;SDS011;66172;48.526;8.078;2023-09-19T15:03:39;3.00;;;0.70;;
77191;SDS011;66172;48.526;8.078;2023-09-19T15:06:07;4.07;;;0.73;;
77191;SDS011;66172;48.526;8.078;2023-09-19T15:08:40;4.40;;;0.90;;
77191;SDS011;66172;48.526;8.078;2023-09-19T15:11:11;3.83;;;0.95;;
77191;SDS011;66172;48.526;8.078;2023-09-19T15:13:38;3.00;;;0.80;;
77191;SDS011;66172;48.526;8.078;2023-09-19T15:16:05;3.53;;;0.90;;
77191;SDS011;66172;48.526;8.078;2023-09-19T15:18:39;3.20;;;1.00;;
77191;SDS011;66172;48.526;8.078;2023-09-19T15:21:08;4.18;;;1.10;;
77191;SDS011;66172;48.526;8.078;2023-09-19T15:23:36;3.72;;;0.80;;
77191;SDS011;66172;48.526;8.078;2023-09-19T15:26:04;3.75;;;0.80;;
77191;SDS011;66172;48.526;8.078;2023-09-19T15:28:31;3.37;;;0.80;;
77191;SDS011;66172;48.526;8.078;2023-09-19T15:31:00;3.30;;;0.80;;
77191;SDS011;66172;48.526;8.078;2023-09-19T15:33:26;4.15;;;0.93;;
77191;SDS011;66172;48.526;8.078;2023-09-19T15:36:06;3.50;;;0.90;;